Time;durP1;ratioP1;P1;durP2;ratioP2;P2;SDS_P1;SDS_P2;PMS_P1;PMS_P2;Temp;Humidity;BMP_temperature;BMP_pressure;BME280_temperature;BME280_humidity;BME280_pressure;Samples;Min_cycle;Max_cycle;Signal;HPM_P1;HPM_P2
2022/04/21 00:00:04;;;;;;;37.28;29.75;;;154.20;2252.80;;;;;;5116610;28;20149;-75
2022/04/21 00:02:30;;;;;;;36.60;30.65;;;154.10;2252.80;;;;;;5116594;28;20020;-72
2022/04/21 00:04:56;;;;;;;34.28;29.45;;;154.10;2252.80;;;;;;5116881;28;20051;-75
2022/04/21 00:07:23;;;;;;;35.58;30.17;;;154.00;2252.80;;;;;;5116477;28;20100;-74
2022/04/21 00:09:49;;;;;;;35.10;31.00;;;154.10;2252.80;;;;;;5116500;28;20016;-72
2022/04/21 00:12:15;;;;;;;35.45;29.58;;;154.10;2252.80;;;;;;5098037;28;20133;-72
2022/04/21 00:14:41;;;;;;;35.80;29.90;;;154.00;2252.80;;;;;;5116445;28;20395;-72
2022/04/21 00:17:11;;;;;;;36.45;30.17;;;154.00;2252.80;;;;;;5116374;28;20080;-74
2022/04/21 00:19:37;;;;;;;35.03;29.92;;;153.90;2252.80;;;;;;5116272;28;20112;-76
2022/04/21 00:24:49;;;;;;;36.72;29.13;;;153.80;2252.80;;;;;;5116711;28;20115;-76
2022/04/21 00:27:15;;;;;;;36.42;30.15;;;153.80;2252.80;;;;;;5116141;28;20027;-73
2022/04/21 00:29:41;;;;;;;37.58;30.13;;;153.80;2252.80;;;;;;5097864;28;20047;-72
2022/04/21 00:32:07;;;;;;;40.53;31.88;;;153.90;2252.80;;;;;;5115864;28;20118;-75
2022/04/21 00:34:34;;;;;;;35.92;30.02;;;153.90;2252.80;;;;;;5115978;28;20564;-75
2022/04/21 00:37:00;;;;;;;39.42;30.17;;;153.90;2252.80;;;;;;5115918;28;20055;-73
2022/04/21 00:39:33;;;;;;;38.80;31.27;;;153.90;2252.80;;;;;;5115932;28;20019;-73
2022/04/21 00:42:00;;;;;;;34.85;30.15;;;154.00;2252.80;;;;;;5097884;28;20026;-73
2022/04/21 00:44:27;;;;;;;40.08;31.55;;;153.90;2252.80;;;;;;5115832;28;20456;-75
2022/04/21 00:46:55;;;;;;;35.88;31.13;;;153.90;2252.80;;;;;;5115739;28;20035;-73
2022/04/21 00:49:22;;;;;;;37.17;31.08;;;153.90;2252.80;;;;;;5115737;28;20387;-73
2022/04/21 00:51:51;;;;;;;38.30;31.52;;;153.90;2252.80;;;;;;5115585;28;20055;-74
2022/04/21 00:54:18;;;;;;;35.35;30.38;;;153.90;2252.80;;;;;;5115578;28;20074;-76
2022/04/21 00:56:44;;;;;;;38.80;32.25;;;153.80;2252.80;;;;;;5115524;28;20020;-74
2022/04/21 00:59:11;;;;;;;41.60;33.47;;;153.80;2252.80;;;;;;5115768;28;20076;-74
2022/04/21 01:04:24;;;;;;;37.80;31.85;;;153.80;2252.80;;;;;;5115776;28;20042;-73
2022/04/21 01:06:54;;;;;;;35.72;30.40;;;153.90;2252.80;;;;;;5115401;28;20019;-75
2022/04/21 01:09:20;;;;;;;35.97;29.52;;;154.10;2252.80;;;;;;5097092;28;20027;-74
2022/04/21 01:11:50;;;;;;;42.28;29.00;;;154.20;2252.80;;;;;;5096990;28;20472;-74
2022/04/21 01:14:16;;;;;;;33.17;29.58;;;154.20;2252.80;;;;;;5115174;28;20045;-73
2022/04/21 01:16:42;;;;;;;37.83;29.50;;;154.20;2252.80;;;;;;5096915;28;20023;-75
2022/04/21 01:19:08;;;;;;;33.80;27.58;;;154.10;2252.80;;;;;;5115104;28;20460;-73
2022/04/21 01:21:34;;;;;;;36.47;30.00;;;154.00;2252.80;;;;;;5115057;28;20490;-75
2022/04/21 01:24:01;;;;;;;36.53;30.25;;;154.00;2252.80;;;;;;5114988;28;20053;-76
2022/04/21 01:26:34;;;;;;;35.63;30.48;;;154.00;2252.80;;;;;;5115224;28;20379;-75
2022/04/21 01:29:05;;;;;;;36.53;29.95;;;154.00;2252.80;;;;;;5114955;28;20024;-75
2022/04/21 01:31:31;;;;;;;37.30;28.48;;;154.00;2252.80;;;;;;5114860;28;20050;-73
2022/04/21 01:33:58;;;;;;;33.25;28.58;;;154.00;2252.80;;;;;;5114604;28;20050;-74
2022/04/21 01:36:24;;;;;;;34.85;28.02;;;154.00;2252.80;;;;;;5115034;28;20020;-75
2022/04/21 01:41:34;;;;;;;33.45;28.95;;;153.90;2252.80;;;;;;5115024;28;20418;-73
2022/04/21 01:44:00;;;;;;;36.95;29.83;;;153.90;2252.80;;;;;;5114631;28;20019;-73
2022/04/21 01:46:26;;;;;;;34.25;28.80;;;153.90;2252.80;;;;;;5114620;28;20020;-75
2022/04/21 01:48:52;;;;;;;32.55;28.15;;;153.80;2252.80;;;;;;5096474;28;20030;-75
2022/04/21 01:51:18;;;;;;;33.67;28.48;;;153.80;2252.80;;;;;;5114491;28;20058;-74
2022/04/21 01:53:44;;;;;;;35.05;29.20;;;153.80;2252.80;;;;;;5114346;28;20070;-74
2022/04/21 01:56:10;;;;;;;38.25;31.25;;;153.80;2252.80;;;;;;5114466;28;20048;-75
2022/04/21 01:58:36;;;;;;;40.17;31.20;;;153.70;2252.80;;;;;;5114572;28;20024;-74
2022/04/21 02:01:02;;;;;;;46.20;32.17;;;153.70;2252.80;;;;;;5096170;28;20045;-75
2022/04/21 02:03:30;;;;;;;39.67;31.02;;;153.70;2252.80;;;;;;5114002;28;20027;-73
2022/04/21 02:05:56;;;;;;;35.17;30.30;;;153.60;2252.80;;;;;;5114301;28;20022;-75
2022/04/21 02:08:22;;;;;;;39.22;29.83;;;153.60;2252.80;;;;;;5114314;28;20027;-76
2022/04/21 02:10:48;;;;;;;44.58;29.77;;;128.90;2252.80;;;;;;5114137;28;20034;-75
2022/04/21 02:13:13;;;;;;;36.25;30.27;;;128.90;2252.80;;;;;;5095721;28;20028;-74
2022/04/21 02:15:39;;;;;;;37.97;30.98;;;128.80;2252.80;;;;;;5095843;28;20490;-74
2022/04/21 02:18:05;;;;;;;45.25;32.03;;;128.70;2252.80;;;;;;5114132;28;20027;-75
2022/04/21 02:20:31;;;;;;;41.28;32.55;;;128.70;2252.80;;;;;;5114037;28;20031;-73
2022/04/21 02:22:57;;;;;;;36.10;31.20;;;128.70;2252.80;;;;;;5114346;28;20028;-76
2022/04/21 02:25:23;;;;;;;41.92;32.00;;;128.70;2252.80;;;;;;5113968;28;20026;-73
2022/04/21 02:27:50;;;;;;;42.17;31.08;;;128.80;2252.80;;;;;;5114032;28;20015;-74
2022/04/21 02:30:18;;;;;;;37.65;30.95;;;128.80;2252.80;;;;;;5113959;28;20491;-75
2022/04/21 02:32:44;;;;;;;40.33;32.08;;;128.80;2252.80;;;;;;5095454;28;20480;-76
2022/04/21 02:35:12;;;;;;;35.33;29.85;;;128.70;2252.80;;;;;;5113907;28;20038;-73
2022/04/21 02:37:46;;;;;;;42.97;32.67;;;128.70;2252.80;;;;;;5113822;28;20032;-73
2022/04/21 02:40:14;;;;;;;40.60;31.95;;;128.60;2252.80;;;;;;5114051;28;20030;-73
2022/04/21 02:42:40;;;;;;;36.78;31.23;;;128.70;2252.80;;;;;;5113742;28;20024;-73
2022/04/21 02:45:11;;;;;;;40.95;31.88;;;128.60;2252.80;;;;;;5095626;28;20024;-75
2022/04/21 02:47:38;;;;;;;38.33;30.92;;;128.60;2252.80;;;;;;5114128;28;20024;-74
2022/04/21 02:50:06;;;;;;;38.38;31.35;;;128.70;2252.80;;;;;;5113785;28;20024;-75
2022/04/21 02:52:35;;;;;;;45.97;31.95;;;;;;;;;;5114235;28;20027;-75
2022/04/21 02:57:46;;;;;;;41.67;33.65;;;;;;;;;;5113783;28;20451;-73
2022/04/21 03:00:12;;;;;;;38.45;32.13;;;;;;;;;;5113969;28;20019;-74
2022/04/21 03:02:39;;;;;;;41.65;33.20;;;;;;;;;;5113681;28;20024;-74
2022/04/21 03:05:05;;;;;;;39.83;33.70;;;;;;;;;;5095425;28;20024;-76
2022/04/21 03:07:31;;;;;;;40.53;32.00;;;;;;;;;;5113634;28;20024;-73
2022/04/21 03:09:57;;;;;;;38.72;31.58;;;;;;;;;;5113834;28;20077;-75
2022/04/21 03:12:26;;;;;;;41.15;31.23;;;;;;;;;;5113545;28;20480;-76
2022/04/21 03:14:53;;;;;;;40.95;31.80;;;;;;;;;;5095793;28;20070;-73
2022/04/21 03:17:19;;;;;;;41.47;33.13;;;;;;;;;;5117455;28;20515;-73
2022/04/21 03:19:45;;;;;;;41.88;33.92;;;;;;;;;;5117472;28;20144;-73
2022/04/21 03:25:05;;;;;;;42.45;33.95;;;128.00;2252.80;;;;;;5117945;28;20119;-73
2022/04/21 03:27:32;;;;;;;39.92;33.22;;;128.00;2252.80;;;;;;5117339;28;20022;-73
2022/04/21 03:30:03;;;;;;;43.47;33.55;;;128.10;2252.80;;;;;;5117312;28;20032;-75
2022/04/21 03:32:29;;;;;;;40.17;34.35;;;128.00;2252.80;;;;;;5098595;28;20079;-72
2022/04/21 03:34:55;;;;;;;41.08;34.58;;;128.10;2252.80;;;;;;5117247;28;20055;-73
2022/04/21 03:37:21;;;;;;;49.40;36.95;;;128.10;2252.80;;;;;;5117157;28;20042;-72
2022/04/21 03:39:47;;;;;;;43.47;35.70;;;128.10;2252.80;;;;;;5117063;28;20103;-72
2022/04/21 03:42:24;;;;;;;44.22;35.55;;;103.00;2227.20;;;;;;5117381;28;20054;-75
2022/04/21 03:44:54;;;;;;;42.58;34.35;;;102.90;2227.20;;;;;;5098789;28;20044;-72
2022/04/21 03:47:21;;;;;;;46.33;33.88;;;103.10;2227.20;;;;;;5098388;28;20020;-73
2022/04/21 03:49:47;;;;;;;51.58;36.33;;;103.20;2227.20;;;;;;5117053;28;20057;-72
2022/04/21 03:52:13;;;;;;;47.17;37.13;;;103.20;2227.20;;;;;;5116882;28;20057;-75
2022/04/21 03:54:40;;;;;;;45.08;37.25;;;103.00;2227.20;;;;;;5116724;28;20548;-72
2022/04/21 03:57:06;;;;;;;45.97;36.05;;;103.10;2227.20;;;;;;5116899;28;20020;-73
2022/04/21 03:59:33;;;;;;;50.83;37.25;;;103.30;2227.20;;;;;;5116958;28;20404;-72
2022/04/21 04:02:02;;;;;;;66.80;43.53;;;103.30;2227.20;;;;;;5116578;28;20058;-73
2022/04/21 04:04:32;;;;;;;58.22;40.88;;;128.00;2252.80;;;;;;5116599;28;20468;-73
2022/04/21 04:12:32;;;;;;;45.25;34.50;;;128.30;2252.80;;;;;;5116742;28;20058;-75
2022/04/21 04:14:59;;;;;;;50.40;35.53;;;128.30;2252.80;;;;;;5098086;28;20031;-73
2022/04/21 04:17:26;;;;;;;43.08;34.55;;;128.30;2252.80;;;;;;5098027;28;20421;-72
2022/04/21 04:19:52;;;;;;;49.17;35.83;;;128.50;2252.80;;;;;;5116341;28;20077;-73
2022/04/21 04:22:18;;;;;;;48.92;36.35;;;128.50;2252.80;;;;;;5116213;28;20580;-73
2022/04/21 04:24:50;;;;;;;70.68;47.95;;;128.60;2252.80;;;;;;5116229;28;20098;-73
2022/04/21 04:27:16;;;;;;;128.07;80.20;;;128.60;2252.80;;;;;;5115825;28;20103;-75
2022/04/21 04:29:42;;;;;;;104.00;70.90;;;128.70;2252.80;;;;;;5116134;28;20012;-73
2022/04/21 04:32:08;;;;;;;85.93;61.10;;;128.80;2252.80;;;;;;5115921;28;20058;-74
2022/04/21 04:34:34;;;;;;;62.17;46.67;;;128.90;2252.80;;;;;;5116264;28;20451;-75
2022/04/21 04:37:00;;;;;;;64.38;47.08;;;153.60;2252.80;;;;;;5116049;28;20472;-73
2022/04/21 04:39:25;;;;;;;64.28;45.05;;;153.70;2252.80;;;;;;5115946;28;20031;-75
2022/04/21 04:44:36;;;;;;;55.33;42.70;;;153.80;2252.80;;;;;;5116009;28;20019;-73
2022/04/21 04:47:02;;;;;;;48.13;36.92;;;153.80;2252.80;;;;;;5097577;28;20020;-73
2022/04/21 04:49:27;;;;;;;46.10;36.13;;;153.90;2252.80;;;;;;5097398;28;20028;-73
2022/04/21 04:51:53;;;;;;;47.95;38.83;;;153.90;2252.80;;;;;;5115689;28;20035;-73
2022/04/21 04:54:19;;;;;;;54.78;38.80;;;153.80;2252.80;;;;;;5115806;28;20035;-73
2022/04/21 04:56:47;;;;;;;46.75;36.10;;;153.80;2252.80;;;;;;5097519;28;20027;-73
2022/04/21 04:59:13;;;;;;;47.97;38.55;;;153.90;2252.80;;;;;;5115533;28;20110;-74
2022/04/21 05:01:41;;;;;;;51.65;36.33;;;154.10;2252.80;;;;;;5115485;28;20043;-74
2022/04/21 05:04:10;;;;;;;48.22;37.97;;;154.00;2252.80;;;;;;5097208;28;20053;-73
2022/04/21 05:06:49;;;;;;;45.05;35.67;;;154.10;2252.80;;;;;;5097127;28;20028;-73
2022/04/21 05:09:17;;;;;;;48.80;35.08;;;154.30;2252.80;;;;;;5115449;28;20024;-73
2022/04/21 05:11:46;;;;;;;43.17;33.63;;;179.20;2252.80;;;;;;5097084;28;20584;-72
2022/04/21 05:14:13;;;;;;;39.10;31.30;;;179.50;2252.80;;;;;;5115283;28;20040;-75
2022/04/21 05:16:42;;;;;;;43.13;34.08;;;;;;;;;;5115149;28;20027;-73
2022/04/21 05:19:13;;;;;;;38.00;31.80;;;180.10;2252.80;;;;;;5115237;28;20031;-75
2022/04/21 05:21:40;;;;;;;77.75;48.17;;;204.80;2252.80;;;;;;5114929;28;20020;-75
2022/04/21 05:24:07;;;;;;;59.08;40.60;;;204.80;2252.80;;;;;;5096094;28;20490;-74
2022/04/21 05:26:34;;;;;;;46.83;34.90;;;205.10;2252.80;;;;;;5114446;28;20019;-73
2022/04/21 05:30:55;;;;;;;42.20;32.90;;;205.40;2252.80;;;;;;5096210;28;20444;-72
2022/04/21 05:31:56;;;;;;;44.13;32.88;;;205.60;2252.80;;;;;;5114159;28;20058;-73
2022/04/21 05:34:23;;;;;;;45.75;33.60;;;230.40;2252.80;;;;;;5114320;28;20122;-73
2022/04/21 05:36:49;;;;;;;48.40;35.38;;;230.40;2252.80;;;;;;5114412;28;20023;-73
2022/04/21 05:39:16;;;;;;;48.70;35.22;;;230.60;2252.80;;;;;;5114061;28;20024;-71
2022/04/21 05:41:43;;;;;;;43.50;33.20;;;230.70;2252.80;;;;;;5114594;28;20043;-73
2022/04/21 05:44:10;;;;;;;35.55;29.05;;;230.90;2252.80;;;;;;5115234;28;20034;-73
2022/04/21 05:46:36;;;;;;;38.30;29.77;;;230.70;2252.80;;;;;;5114510;28;20023;-73
2022/04/21 05:49:02;;;;;;;36.13;28.60;;;230.70;2252.80;;;;;;5114547;28;20106;-73
2022/04/21 05:51:29;;;;;;;38.05;29.50;;;230.90;2252.80;;;;;;5096282;28;20032;-73
2022/04/21 05:53:57;;;;;;;39.40;29.17;;;231.00;2252.80;;;;;;5114065;28;20050;-74
2022/04/21 05:56:24;;;;;;;37.30;29.50;;;231.00;2252.80;;;;;;5114225;28;20027;-73
2022/04/21 05:58:51;;;;;;;39.50;31.58;;;231.20;2252.80;;;;;;5113508;28;20106;-73
2022/04/21 06:01:17;;;;;;;36.92;28.15;;;231.20;2252.80;;;;;;5114663;28;20440;-72
2022/04/21 06:03:46;;;;;;;34.10;28.00;;;231.30;2252.80;;;;;;5114311;28;20019;-72
2022/04/21 06:06:12;;;;;;;33.42;27.95;;;256.00;2252.80;;;;;;5114541;28;20483;-72
2022/04/21 06:08:40;;;;;;;32.38;25.83;;;256.10;2252.80;;;;;;5114250;28;20050;-72
2022/04/21 06:11:06;;;;;;;36.10;28.10;;;256.30;2252.80;;;;;;5114193;28;20023;-72
2022/04/21 06:13:32;;;;;;;34.33;27.52;;;256.50;2252.80;;;;;;5114101;28;20404;-72
2022/04/21 06:15:59;;;;;;;37.40;27.33;;;256.60;2252.80;;;;;;5114184;28;20030;-72
2022/04/21 06:18:26;;;;;;;32.10;27.02;;;281.60;2278.40;;;;;;5114079;28;20023;-72
2022/04/21 06:20:53;;;;;;;34.50;26.17;;;281.90;2278.40;;;;;;5114088;28;20019;-73
2022/04/21 06:23:20;;;;;;;39.60;27.08;;;282.10;2278.40;;;;;;5114088;28;20533;-71
2022/04/21 06:25:47;;;;;;;38.08;27.98;;;;;;;;;;5114074;28;20449;-72
2022/04/21 06:28:13;;;;;;;35.85;28.38;;;282.20;2278.40;;;;;;5113961;28;20107;-72
2022/04/21 06:30:40;;;;;;;43.58;28.08;;;282.30;2278.40;;;;;;5113856;28;20468;-72
2022/04/21 06:33:06;;;;;;;38.20;29.27;;;307.30;2304.00;;;;;;5113682;28;20040;-75
2022/04/21 06:35:32;;;;;;;42.03;28.13;;;307.40;2304.00;;;;;;5114120;28;20106;-72
2022/04/21 06:37:58;;;;;;;37.20;28.50;;;307.40;2304.00;;;;;;5113888;28;20091;-72
2022/04/21 06:40:24;;;;;;;36.35;27.05;;;307.50;2304.00;;;;;;5113830;28;20030;-74
2022/04/21 06:42:50;;;;;;;37.67;28.65;;;307.50;2304.00;;;;;;5113826;28;20024;-72
2022/04/21 06:48:04;;;;;;;38.65;28.13;;;307.70;2304.00;;;;;;5114411;28;20040;-72
2022/04/21 06:50:39;;;;;;;38.67;26.80;;;307.90;2304.00;;;;;;5117195;28;20493;-70
2022/04/21 06:53:07;;;;;;;30.67;24.70;;;307.90;2304.00;;;;;;5117035;28;20035;-73
2022/04/21 06:55:34;;;;;;;35.17;26.17;;;307.90;2304.00;;;;;;5117531;28;20497;-73
2022/04/21 06:58:01;;;;;;;32.83;24.60;;;308.10;2304.00;;;;;;5117317;28;20028;-77
2022/04/21 07:00:27;;;;;;;24.55;20.30;;;332.80;2329.60;;;;;;5117438;28;20024;-72
2022/04/21 07:02:57;;;;;;;26.40;21.20;;;332.90;2329.60;;;;;;5117240;28;20041;-73
2022/04/21 07:05:27;;;;;;;21.75;17.45;;;333.10;2329.60;;;;;;5117336;28;20016;-73
2022/04/21 07:07:53;;;;;;;23.02;18.35;;;333.30;2329.60;;;;;;5098891;28;20019;-72
2022/04/21 07:10:20;;;;;;;22.90;17.70;;;333.30;2329.60;;;;;;5098890;28;20020;-75
2022/04/21 07:12:47;;;;;;;20.65;16.90;;;333.60;2329.60;;;;;;5117160;28;20038;-72
2022/04/21 07:15:13;;;;;;;22.20;16.88;;;333.50;2278.40;;;;;;5098699;28;20055;-73
2022/04/21 07:17:40;;;;;;;27.33;19.65;;;333.50;2227.20;;;;;;5117081;28;20095;-73
2022/04/21 07:20:09;;;;;;;23.52;18.88;;;358.50;2227.20;;;;;;5117023;28;20034;-70
2022/04/21 07:22:34;;;;;;;19.92;16.50;;;358.50;2201.60;;;;;;5116751;28;20054;-76
2022/04/21 07:25:02;;;;;;;20.27;16.33;;;333.70;2124.80;;;;;;5116903;28;20055;-73
2022/04/21 07:27:29;;;;;;;20.80;16.98;;;333.70;2176.00;;;;;;5116781;28;20464;-75
2022/04/21 07:29:56;;;;;;;29.88;22.75;;;358.40;2150.40;;;;;;5116876;28;20045;-76
2022/04/21 07:32:22;;;;;;;24.95;21.35;;;358.40;2124.80;;;;;;5116607;28;20036;-73
2022/04/21 07:34:48;;;;;;;26.65;20.70;;;358.80;2124.80;;;;;;5098760;28;20035;-73
2022/04/21 07:37:14;;;;;;;37.35;26.63;;;358.90;2099.20;;;;;;5098808;28;20046;-72
2022/04/21 07:39:40;;;;;;;32.78;25.58;;;359.00;2073.60;;;;;;5116976;28;20531;-72
2022/04/21 07:42:10;;;;;;;23.65;19.00;;;358.60;2048.00;;;;;;5098679;28;20379;-72
2022/04/21 07:44:37;;;;;;;39.75;28.10;;;358.70;2022.40;;;;;;5098096;28;20483;-73
2022/04/21 07:47:05;;;;;;;35.25;27.80;;;358.70;2022.40;;;;;;5116830;28;20110;-72
2022/04/21 07:49:46;;;;;;;38.38;28.75;;;358.60;2073.60;;;;;;5115962;28;20323;-72
2022/04/21 07:55:20;;;;;;;32.13;25.05;;;359.00;2022.40;;;;;;5117413;28;20057;-71
2022/04/21 07:57:47;;;;;;;27.45;20.95;;;359.30;1971.20;;;;;;5115953;28;20392;-76
2022/04/21 08:00:15;;;;;;;24.73;20.48;;;384.00;1868.80;;;;;;5097764;28;20384;-72
2022/04/21 08:02:43;;;;;;;31.20;24.35;;;359.30;1868.80;;;;;;5115735;28;20020;-72
2022/04/21 08:05:11;;;;;;;34.25;24.38;;;384.00;1843.20;;;;;;5115664;28;20496;-75
2022/04/21 08:07:37;;;;;;;19.52;17.40;;;384.10;1843.20;;;;;;5080865;28;20020;-73
2022/04/21 08:10:05;;;;;;;21.42;16.52;;;384.00;1843.20;;;;;;5115526;28;20070;-74
2022/04/21 08:12:45;;;;;;;20.15;14.30;;;384.00;1843.20;;;;;;5115718;28;20023;-74
2022/04/21 08:15:14;;;;;;;15.65;12.80;;;384.30;1817.60;;;;;;5096719;28;20035;-74
2022/04/21 08:17:40;;;;;;;15.02;12.50;;;384.40;1792.00;;;;;;5112635;28;20031;-75
2022/04/21 08:20:10;;;;;;;13.93;11.80;;;384.10;1740.80;;;;;;5115872;28;20051;-73
2022/04/21 08:22:36;;;;;;;14.18;10.55;;;384.40;1740.80;;;;;;5115915;28;20483;-72
2022/04/21 08:33:18;;;;;;;11.23;10.13;;;384.50;1587.20;;;;;;5113132;28;20127;-74
2022/04/21 08:35:45;;;;;;;12.02;10.18;;;384.60;1638.40;;;;;;5115399;28;20016;-75
2022/04/21 08:38:12;;;;;;;11.95;10.20;;;410.40;1638.40;;;;;;5114845;28;20090;-74
2022/04/21 08:40:41;;;;;;;15.00;10.07;;;435.80;1536.00;;;;;;5115321;28;20024;-77
2022/04/21 08:43:16;;;;;;;23.67;16.73;;;460.90;1459.20;;;;;;5115348;28;20119;-73
2022/04/21 08:45:43;;;;;;;12.68;10.60;;;460.80;1484.80;;;;;;5115372;28;20110;-75
2022/04/21 08:48:19;;;;;;;17.73;14.23;;;461.40;1484.80;;;;;;5102048;28;20041;-73
2022/04/21 08:50:46;;;;;;;19.90;13.38;;;486.70;1382.40;;;;;;5115106;28;20384;-73
2022/04/21 08:53:15;;;;;;;13.18;10.60;;;487.00;1408.00;;;;;;5115084;28;20027;-73
2022/04/21 08:55:41;;;;;;;15.10;10.95;;;486.50;1331.20;;;;;;5115101;28;20018;-74
2022/04/21 08:58:07;;;;;;;10.63;9.52;;;461.10;1408.00;;;;;;5114972;28;20020;-75
2022/04/21 09:00:33;;;;;;;11.57;9.35;;;461.40;1382.40;;;;;;5114976;28;20069;-74
2022/04/21 09:03:03;;;;;;;19.33;10.80;;;461.70;1331.20;;;;;;5114914;28;20031;-75
2022/04/21 09:05:29;;;;;;;38.58;14.35;;;461.20;1433.60;;;;;;5115352;28;20068;-74
2022/04/21 09:07:57;;;;;;;12.45;10.30;;;461.10;1459.20;;;;;;5115322;28;20020;-73
2022/04/21 09:10:24;;;;;;;12.93;10.02;;;460.90;1382.40;;;;;;5097090;28;20088;-74
2022/04/21 09:12:56;;;;;;;11.65;9.85;;;435.50;1382.40;;;;;;5114094;28;20038;-73
2022/04/21 09:15:32;;;;;;;26.83;11.13;;;435.60;1433.60;;;;;;5096850;28;20055;-74
2022/04/21 09:18:00;;;;;;;15.68;9.05;;;436.10;1408.00;;;;;;5115431;28;20066;-75
2022/04/21 09:20:33;;;;;;;15.07;10.57;;;461.50;1305.60;;;;;;5096871;28;20027;-75
2022/04/21 09:23:00;;;;;;;34.60;14.48;;;486.40;1305.60;;;;;;5115149;28;20038;-75
2022/04/21 09:25:32;;;;;;;11.25;8.35;;;486.60;1305.60;;;;;;5114528;28;20036;-76
2022/04/21 09:28:02;;;;;;;11.43;8.82;;;487.10;1254.40;;;;;;5097668;28;20016;-77
2022/04/21 09:30:27;;;;;;;8.38;6.85;;;486.60;1228.80;;;;;;5114663;28;20019;-77
2022/04/21 09:32:58;;;;;;;8.57;6.28;;;461.50;1280.00;;;;;;5114271;28;20051;-77
2022/04/21 09:35:28;;;;;;;8.35;5.70;;;460.80;1280.00;;;;;;5114764;28;20502;-77
2022/04/21 09:37:55;;;;;;;9.57;6.55;;;435.40;1331.20;;;;;;5114430;28;20141;-75
2022/04/21 09:40:26;;;;;;;9.15;6.68;;;435.30;1331.20;;;;;;5096089;28;20047;-74
2022/04/21 09:42:56;;;;;;;13.52;8.00;;;435.70;1305.60;;;;;;5114317;28;20472;-75
2022/04/21 09:48:18;;;;;;;10.93;7.30;;;486.50;1203.20;;;;;;5115183;28;20096;-74
2022/04/21 09:50:49;;;;;;;10.40;7.00;;;486.60;1228.80;;;;;;5096135;28;20076;-75
2022/04/21 09:53:19;;;;;;;13.05;9.77;;;486.40;1254.40;;;;;;5114465;28;20483;-75
2022/04/21 09:55:46;;;;;;;15.45;9.43;;;486.50;1254.40;;;;;;5114050;28;20019;-76
2022/04/21 09:58:13;;;;;;;10.82;6.93;;;486.80;1254.40;;;;;;5114131;28;20030;-74
2022/04/21 10:00:41;;;;;;;8.23;6.30;;;486.90;1254.40;;;;;;5113889;28;20023;-73
2022/04/21 10:03:08;;;;;;;10.13;7.95;;;486.60;1228.80;;;;;;5113808;28;20028;-76
2022/04/21 10:05:36;;;;;;;11.60;8.50;;;487.10;1228.80;;;;;;5095597;28;20131;-72
2022/04/21 10:08:04;;;;;;;11.07;7.97;;;512.20;1177.60;;;;;;5113751;28;20066;-72
2022/04/21 10:10:31;;;;;;;10.90;7.47;;;512.60;1126.40;;;;;;5113713;28;20015;-76
2022/04/21 10:12:59;;;;;;;12.10;8.73;;;512.30;1126.40;;;;;;5113634;28;20488;-74
2022/04/21 10:15:26;;;;;;;6.90;6.20;;;512.50;1177.60;;;;;;5093343;28;20015;-74
2022/04/21 10:17:52;;;;;;;7.15;5.32;;;512.50;1152.00;;;;;;5113526;28;20027;-74
2022/04/21 10:20:24;;;;;;;10.55;6.45;;;512.60;1100.80;;;;;;5113672;28;20023;-75
2022/04/21 10:22:53;;;;;;;10.27;8.18;;;512.70;1152.00;;;;;;5111715;28;20020;-75
2022/04/21 10:25:19;;;;;;;10.68;7.63;;;512.70;1126.40;;;;;;5113054;28;20015;-74
2022/04/21 10:27:47;;;;;;;7.43;4.90;;;512.90;1126.40;;;;;;5113503;28;20416;-74
2022/04/21 10:30:14;;;;;;;6.88;6.03;;;512.70;1100.80;;;;;;5113912;28;20392;-74
2022/04/21 10:32:53;;;;;;;9.57;5.07;;;512.90;1126.40;;;;;;5113382;28;20104;-74
2022/04/21 10:35:19;;;;;;;6.10;5.20;;;512.70;1126.40;;;;;;5095859;28;20059;-75
2022/04/21 10:37:46;;;;;;;9.68;6.90;;;512.70;1152.00;;;;;;5094850;28;20024;-76
2022/04/21 10:40:18;;;;;;;8.73;7.15;;;512.70;1152.00;;;;;;5113366;28;20461;-75
2022/04/21 10:42:52;;;;;;;6.90;5.15;;;512.70;1126.40;;;;;;5113478;28;20513;-77
2022/04/21 10:45:31;;;;;;;9.52;6.05;;;512.20;1126.40;;;;;;5112446;28;20031;-74
2022/04/21 10:48:08;;;;;;;7.20;5.07;;;512.60;1126.40;;;;;;5113413;28;20103;-73
2022/04/21 10:50:36;;;;;;;11.43;5.47;;;512.20;1100.80;;;;;;5112083;28;20020;-73
2022/04/21 10:58:34;;;;;;;11.20;6.40;;;512.60;1126.40;;;;;;5113491;28;20035;-74
2022/04/21 11:01:27;;;;;;;7.65;5.45;;;512.80;1126.40;;;;;;5113098;28;20023;-71
2022/04/21 11:04:17;;;;;;;8.23;6.40;;;512.40;1100.80;;;;;;5112657;28;20027;-73
2022/04/21 11:06:45;;;;;;;5.70;4.80;;;512.40;1075.20;;;;;;5111431;28;20018;-73
2022/04/21 11:09:33;;;;;;;7.32;6.03;;;512.40;1075.20;;;;;;5103307;28;20028;-74
2022/04/21 11:11:59;;;;;;;6.65;5.18;;;537.70;1100.80;;;;;;5110593;28;20024;-74
2022/04/21 11:14:29;;;;;;;7.30;5.28;;;512.50;1100.80;;;;;;5113621;28;20088;-74
2022/04/21 11:16:58;;;;;;;6.63;5.75;;;512.60;1126.40;;;;;;5112358;28;20063;-72
2022/04/21 11:19:33;;;;;;;9.23;6.28;;;512.70;1100.80;;;;;;5113428;28;20376;-74
2022/04/21 11:22:01;;;;;;;8.13;6.43;;;537.70;1100.80;;;;;;5113701;28;20479;-75
2022/04/21 11:24:27;;;;;;;11.00;5.35;;;538.20;1075.20;;;;;;5113092;28;20024;-75
2022/04/21 11:27:00;;;;;;;32.65;6.70;;;537.90;1075.20;;;;;;5112917;28;20023;-73
2022/04/21 11:29:26;;;;;;;14.63;5.80;;;512.80;1075.20;;;;;;5112150;28;20114;-72
2022/04/21 11:31:59;;;;;;;6.75;4.88;;;512.50;1075.20;;;;;;5113283;28;20033;-74
2022/04/21 11:34:25;;;;;;;;;;;512.80;1075.20;;;;;;5113969;28;20032;-73
2022/04/21 11:36:56;;;;;;;7.53;5.22;;;512.70;1049.60;;;;;;5115441;28;19910;-72
2022/04/21 11:39:22;;;;;;;8.15;5.10;;;512.50;1075.20;;;;;;5116856;28;20020;-75
2022/04/21 11:41:49;;;;;;;6.00;3.80;;;537.70;1049.60;;;;;;5116829;28;20027;-74
2022/04/21 11:44:22;;;;;;;3.80;3.15;;;537.60;1024.00;;;;;;5116624;28;20016;-74
2022/04/21 11:46:49;;;;;;;5.70;3.80;;;537.60;1024.00;;;;;;5117320;28;20357;-74
2022/04/21 11:49:15;;;;;;;4.55;3.65;;;538.00;1049.60;;;;;;5116842;28;20023;-72
2022/04/21 11:51:42;;;;;;;6.88;4.57;;;537.80;1024.00;;;;;;5116939;28;20024;-73
2022/04/21 11:54:10;;;;;;;5.88;4.85;;;538.10;1075.20;;;;;;5116729;28;20042;-73
2022/04/21 11:56:37;;;;;;;8.02;5.00;;;538.30;1049.60;;;;;;5115393;28;20443;-76
2022/04/21 11:59:10;;;;;;;7.95;3.90;;;538.20;1024.00;;;;;;5116637;28;20499;-73
2022/04/21 12:07:11;;;;;;;7.15;5.28;;;537.70;1049.60;;;;;;5116285;28;20392;-74
2022/04/21 12:09:41;;;;;;;6.32;4.47;;;538.10;1049.60;;;;;;5116011;28;20077;-74
2022/04/21 12:12:08;;;;;;;4.80;4.22;;;538.10;1049.60;;;;;;5114579;28;20069;-75
2022/04/21 12:14:35;;;;;;;7.47;4.50;;;538.00;1024.00;;;;;;5116296;28;20054;-76
2022/04/21 12:17:02;;;;;;;6.25;4.32;;;538.40;1024.00;;;;;;5097941;28;20429;-73
2022/04/21 12:19:39;;;;;;;10.13;6.05;;;538.10;1024.00;;;;;;5116037;28;20024;-72
2022/04/21 12:22:09;;;;;;;6.35;5.50;;;538.30;1024.00;;;;;;5115964;28;20080;-74
2022/04/21 12:24:35;;;;;;;7.78;5.75;;;538.20;1049.60;;;;;;5115786;28;20039;-74
2022/04/21 12:27:04;;;;;;;8.32;5.00;;;538.00;1049.60;;;;;;5115985;28;20055;-74
2022/04/21 12:29:31;;;;;;;6.25;4.85;;;;;;;;;;5116042;28;20076;-74
2022/04/21 12:32:05;;;;;;;7.10;5.45;;;563.30;1152.00;;;;;;5115777;28;20107;-73
2022/04/21 12:34:38;;;;;;;9.55;5.50;;;563.20;1024.00;;;;;;5115873;28;20376;-74
2022/04/21 12:37:06;;;;;;;12.23;4.60;;;564.10;1049.60;;;;;;5115916;28;20016;-74
2022/04/21 12:39:33;;;;;;;6.78;4.97;;;563.80;998.40;;;;;;5115852;28;20059;-72
2022/04/21 12:42:01;;;;;;;3.90;3.35;;;563.70;1024.00;;;;;;5115784;28;20077;-74
2022/04/21 12:44:27;;;;;;;5.22;3.95;;;563.80;998.40;;;;;;5115686;28;20532;-73
2022/04/21 12:47:18;;;;;;;5.03;3.78;;;563.70;972.80;;;;;;5115555;28;20023;-73
2022/04/21 12:50:08;;;;;;;5.05;3.95;;;563.60;972.80;;;;;;5115789;28;20020;-75
2022/04/21 12:52:41;;;;;;;9.57;7.00;;;;;;;;;;5097471;28;20023;-75
2022/04/21 12:55:12;;;;;;;7.45;5.40;;;589.00;998.40;;;;;;5115681;28;20106;-75
2022/04/21 12:57:39;;;;;;;5.50;3.80;;;;;;;;;;5115512;28;20103;-72
2022/04/21 13:00:07;;;;;;;4.45;3.78;;;;;;;;;;5097233;28;20484;-73
2022/04/21 13:02:33;;;;;;;13.80;5.22;;;589.30;947.20;;;;;;5115461;28;20205;-73
2022/04/21 13:05:00;;;;;;;4.65;3.67;;;589.40;921.60;;;;;;5115283;28;20160;-74